createdAt,value
2022-09-04T00:01:53.681Z,2.40
2022-09-04T00:04:31.614Z,2.40
2022-09-04T00:07:11.210Z,2.17
2022-09-04T00:09:49.652Z,2.30
2022-09-04T00:12:26.829Z,2.80
2022-09-04T00:15:00.715Z,2.35
2022-09-04T00:17:34.670Z,2.30
2022-09-04T00:20:06.756Z,1.92
2022-09-04T00:22:38.404Z,2.28
2022-09-04T00:25:18.670Z,2.63
2022-09-04T00:30:21.734Z,2.13
2022-09-04T00:32:55.977Z,2.50
2022-09-04T00:35:31.516Z,2.15
2022-09-04T00:38:03.777Z,1.90
2022-09-04T00:40:35.917Z,2.13
2022-09-04T00:43:33.224Z,2.33
2022-09-04T00:46:26.502Z,2.05
2022-09-04T00:49:36.572Z,2.80
2022-09-04T00:52:12.269Z,2.08
2022-09-04T00:54:53.583Z,2.72
2022-09-04T00:57:55.122Z,2.53
2022-09-04T01:00:27.848Z,2.42
2022-09-04T01:03:18.680Z,2.65
2022-09-04T01:06:05.033Z,2.88
2022-09-04T01:08:43.294Z,2.65
2022-09-04T01:11:18.987Z,2.53
2022-09-04T01:13:59.341Z,2.72
2022-09-04T01:16:35.099Z,2.30
2022-09-04T01:19:16.986Z,2.70
2022-09-04T01:22:12.347Z,2.72
2022-09-04T01:24:55.324Z,2.70
2022-09-04T01:27:28.882Z,2.13
2022-09-04T01:30:04.504Z,2.28
2022-09-04T01:32:43.258Z,2.40
2022-09-04T01:35:23.186Z,2.40
2022-09-04T01:38:00.461Z,2.65
2022-09-04T01:40:43.294Z,2.42
2022-09-04T01:43:17.502Z,2.50
2022-09-04T01:46:19.087Z,2.55
2022-09-04T01:48:52.790Z,2.90
2022-09-04T01:51:33.832Z,2.20
2022-09-04T01:54:13.647Z,2.60
2022-09-04T01:56:49.661Z,2.20
2022-09-04T01:59:29.173Z,2.60
2022-09-04T02:02:03.095Z,2.33
2022-09-04T02:04:40.451Z,2.72
2022-09-04T02:07:18.079Z,2.25
2022-09-04T02:09:54.482Z,2.58
2022-09-04T02:12:36.113Z,2.22
2022-09-04T02:15:13.397Z,2.28
2022-09-04T02:17:48.941Z,2.42
2022-09-04T02:20:26.310Z,2.38
2022-09-04T02:23:12.065Z,2.13
2022-09-04T02:25:49.179Z,2.80
2022-09-04T02:28:28.231Z,2.35
2022-09-04T02:31:06.439Z,2.15
2022-09-04T02:33:44.349Z,2.50
2022-09-04T02:36:19.777Z,2.65
2022-09-04T02:38:57.102Z,2.72
2022-09-04T02:41:32.371Z,2.58
2022-09-04T02:44:15.726Z,2.50
2022-09-04T02:46:57.117Z,2.45
2022-09-04T02:49:36.951Z,2.92
2022-09-04T02:52:18.293Z,2.42
2022-09-04T02:54:59.762Z,2.35
2022-09-04T02:57:40.460Z,2.90
2022-09-04T03:00:14.743Z,2.60
2022-09-04T03:02:54.438Z,2.78
2022-09-04T03:05:25.851Z,2.30
2022-09-04T03:08:01.268Z,2.20
2022-09-04T03:10:34.591Z,2.38
2022-09-04T03:13:09.938Z,2.30
2022-09-04T03:15:45.256Z,2.38
2022-09-04T03:18:20.999Z,3.00
2022-09-04T03:20:55.626Z,2.60
2022-09-04T03:23:31.644Z,2.40
2022-09-04T03:26:19.384Z,2.40
2022-09-04T03:28:58.499Z,2.53
2022-09-04T03:31:32.138Z,2.53
2022-09-04T03:34:13.712Z,2.50
2022-09-04T03:36:53.037Z,2.08
2022-09-04T03:39:31.971Z,2.70
2022-09-04T03:42:11.028Z,2.72
2022-09-04T03:44:52.361Z,2.67
2022-09-04T03:47:30.933Z,2.35
2022-09-04T03:50:11.235Z,2.33
2022-09-04T03:55:36.355Z,2.65
2022-09-04T03:58:16.974Z,2.55
2022-09-04T04:00:51.728Z,2.30
2022-09-04T04:03:37.852Z,2.60
2022-09-04T04:06:24.674Z,2.72
2022-09-04T04:09:28.806Z,2.63
2022-09-04T04:12:13.415Z,2.83
2022-09-04T04:15:16.734Z,2.70
2022-09-04T04:18:13.286Z,2.78
2022-09-04T04:20:45.987Z,2.58
2022-09-04T04:23:48.022Z,2.45
2022-09-04T04:26:22.666Z,2.85
2022-09-04T04:29:08.608Z,2.80
2022-09-04T04:32:10.483Z,2.80
2022-09-04T04:34:48.587Z,2.50
2022-09-04T04:37:27.930Z,2.88
2022-09-04T04:40:04.147Z,2.85
2022-09-04T04:42:44.107Z,2.90
2022-09-04T04:45:52.507Z,2.50
2022-09-04T04:49:04.254Z,2.75
2022-09-04T04:51:58.303Z,2.40
2022-09-04T04:54:42.705Z,2.58
2022-09-04T04:57:28.027Z,2.63
2022-09-04T05:00:06.658Z,2.45
2022-09-04T05:02:44.172Z,2.30
2022-09-04T05:05:18.405Z,2.45
2022-09-04T05:08:06.340Z,2.85
2022-09-04T05:10:43.410Z,2.72
2022-09-04T05:13:21.534Z,2.80
2022-09-04T05:16:08.896Z,2.50
2022-09-04T05:18:46.407Z,3.20
2022-09-04T05:21:22.716Z,2.80
2022-09-04T05:23:59.157Z,3.28
2022-09-04T05:26:34.372Z,3.05
2022-09-04T05:29:12.122Z,2.75
2022-09-04T05:31:49.402Z,2.97
2022-09-04T05:34:27.887Z,2.67
2022-09-04T05:37:08.869Z,3.25
2022-09-04T05:39:49.373Z,3.08
2022-09-04T05:42:45.415Z,3.50
2022-09-04T05:45:24.568Z,3.40
2022-09-04T05:48:03.000Z,3.20
2022-09-04T05:50:58.738Z,3.70
2022-09-04T05:54:08.547Z,2.95
2022-09-04T05:57:05.516Z,3.75
2022-09-04T06:00:04.259Z,3.70
2022-09-04T06:03:32.412Z,3.70
2022-09-04T06:06:20.477Z,3.45
2022-09-04T06:09:21.399Z,3.50
2022-09-04T06:12:06.200Z,3.53
2022-09-04T06:14:58.740Z,3.53
2022-09-04T06:18:08.868Z,3.33
2022-09-04T06:21:06.045Z,3.20
2022-09-04T06:23:50.538Z,3.22
2022-09-04T06:26:32.409Z,3.20
2022-09-04T06:29:14.576Z,3.47
2022-09-04T06:32:30.092Z,3.58
2022-09-04T06:35:16.220Z,3.20
2022-09-04T06:37:58.717Z,3.55
2022-09-04T06:40:41.846Z,3.13
2022-09-04T06:43:24.251Z,3.10
2022-09-04T06:46:11.585Z,2.75
2022-09-04T06:48:55.152Z,3.10
2022-09-04T06:51:36.386Z,2.60
2022-09-04T06:54:16.971Z,3.03
2022-09-04T06:56:59.465Z,2.85
2022-09-04T06:59:55.632Z,2.88
2022-09-04T07:02:42.501Z,2.60
2022-09-04T07:05:20.712Z,2.92
2022-09-04T07:08:02.254Z,2.83
2022-09-04T07:10:34.556Z,2.90
2022-09-04T07:13:32.401Z,2.80
2022-09-04T07:16:31.882Z,3.28
2022-09-04T07:19:18.720Z,3.27
2022-09-04T07:21:58.886Z,2.47
2022-09-04T07:24:55.514Z,2.88
2022-09-04T07:27:37.731Z,3.03
2022-09-04T07:30:08.258Z,2.92
2022-09-04T07:32:43.197Z,2.90
2022-09-04T07:35:17.582Z,2.80
2022-09-04T07:37:58.333Z,2.72
2022-09-04T07:40:31.881Z,2.78
2022-09-04T07:43:09.430Z,2.90
2022-09-04T07:45:48.751Z,2.92
2022-09-04T07:48:28.600Z,2.42
2022-09-04T07:51:04.892Z,3.15
2022-09-04T07:54:00.751Z,2.92
2022-09-04T07:56:46.004Z,3.03
2022-09-04T07:59:39.430Z,2.72
2022-09-04T08:02:34.731Z,2.38
2022-09-04T08:05:21.321Z,2.70
2022-09-04T08:08:12.992Z,2.67
2022-09-04T08:10:48.215Z,2.58
2022-09-04T08:13:35.415Z,2.90
2022-09-04T08:16:08.940Z,2.42
2022-09-04T08:19:01.550Z,2.40
2022-09-04T08:21:31.790Z,3.05
2022-09-04T08:26:58.009Z,2.15
2022-09-04T08:29:41.105Z,2.47
2022-09-04T08:32:26.647Z,2.22
2022-09-04T08:35:23.226Z,2.60
2022-09-04T08:38:04.941Z,2.38
2022-09-04T08:41:10.295Z,2.40
2022-09-04T08:44:05.809Z,2.35
2022-09-04T08:47:01.725Z,2.35
2022-09-04T08:50:11.931Z,2.30
2022-09-04T08:53:20.597Z,2.15
2022-09-04T08:55:58.371Z,2.20
2022-09-04T08:58:56.327Z,1.92
2022-09-04T09:01:58.490Z,2.33
2022-09-04T09:05:03.823Z,2.40
2022-09-04T09:08:06.215Z,2.47
2022-09-04T09:11:06.962Z,2.35
2022-09-04T09:14:08.023Z,2.83
2022-09-04T09:16:44.487Z,2.05
2022-09-04T09:19:23.181Z,2.30
2022-09-04T09:22:12.738Z,2.22
2022-09-04T09:25:16.001Z,2.00
2022-09-04T09:28:16.654Z,1.90
2022-09-04T09:31:11.124Z,1.70
2022-09-04T09:34:29.894Z,1.80
2022-09-04T09:37:30.998Z,2.20
2022-09-04T09:40:26.465Z,2.35
2022-09-04T09:43:21.422Z,2.10
2022-09-04T09:46:22.639Z,2.20
2022-09-04T09:49:14.895Z,2.30
2022-09-04T09:52:18.572Z,1.90
2022-09-04T09:55:30.034Z,2.10
2022-09-04T09:58:28.916Z,1.70
2022-09-04T10:01:09.621Z,2.50
2022-09-04T10:04:11.897Z,1.88
2022-09-04T10:07:04.162Z,2.10
2022-09-04T10:09:55.878Z,1.90
2022-09-04T10:13:02.543Z,1.90
2022-09-04T10:16:22.333Z,2.60
2022-09-04T10:19:22.613Z,2.80
2022-09-04T10:25:10.748Z,2.20
2022-09-04T10:28:18.442Z,1.90
2022-09-04T10:31:13.140Z,2.28
2022-09-04T10:33:58.499Z,2.13
2022-09-04T10:36:36.437Z,1.90
2022-09-04T10:39:35.430Z,2.00
2022-09-04T10:42:09.986Z,2.00
2022-09-04T10:44:46.101Z,2.20
2022-09-04T10:47:28.169Z,2.10
2022-09-04T10:50:19.171Z,1.83
2022-09-04T10:53:11.854Z,1.80
2022-09-04T10:56:09.978Z,1.92
2022-09-04T10:59:02.958Z,1.98
2022-09-04T11:02:14.968Z,1.70
2022-09-04T11:05:09.533Z,1.70
2022-09-04T11:07:49.418Z,1.67
2022-09-04T11:10:32.716Z,1.60
2022-09-04T11:13:40.644Z,2.20
2022-09-04T11:16:32.164Z,1.77
2022-09-04T11:19:39.326Z,1.70
2022-09-04T11:22:46.703Z,1.90
2022-09-04T11:26:05.938Z,1.70
2022-09-04T11:28:51.314Z,1.77
2022-09-04T11:31:34.803Z,2.00
2022-09-04T11:34:50.868Z,1.92
2022-09-04T11:37:49.833Z,1.63
2022-09-04T11:40:34.955Z,1.63
2022-09-04T11:43:22.383Z,1.80
2022-09-04T11:46:13.633Z,1.80
2022-09-04T11:49:09.850Z,1.60
2022-09-04T11:52:04.384Z,1.83
2022-09-04T11:55:06.631Z,1.67
2022-09-04T11:57:50.248Z,1.60
2022-09-04T12:00:19.958Z,1.70
2022-09-04T12:03:32.182Z,1.70
2022-09-04T12:06:09.431Z,1.55
2022-09-04T12:09:05.406Z,1.58
2022-09-04T12:12:11.061Z,1.60
2022-09-04T12:14:55.527Z,1.70
2022-09-04T12:17:56.601Z,1.80
2022-09-04T12:21:06.670Z,1.85
2022-09-04T12:26:58.128Z,1.75
2022-09-04T12:29:58.232Z,1.70
2022-09-04T12:33:02.941Z,1.70
2022-09-04T12:38:52.276Z,2.00
2022-09-04T12:41:28.800Z,2.15
2022-09-04T12:44:08.733Z,2.03
2022-09-04T12:47:02.784Z,2.00
2022-09-04T12:49:58.188Z,1.50
2022-09-04T12:52:39.236Z,1.67
2022-09-04T12:55:15.903Z,1.83
2022-09-04T12:57:55.594Z,1.63
2022-09-04T13:00:40.719Z,1.38
2022-09-04T13:03:30.076Z,1.50
2022-09-04T13:06:08.491Z,1.60
2022-09-04T13:08:49.082Z,1.30
2022-09-04T13:11:32.250Z,1.50
2022-09-04T13:14:17.044Z,1.70
2022-09-04T13:16:55.104Z,1.70
2022-09-04T13:19:33.948Z,1.40
2022-09-04T13:22:13.206Z,1.52
2022-09-04T13:24:52.348Z,1.65
2022-09-04T13:27:34.549Z,1.50
2022-09-04T13:30:07.819Z,1.98
2022-09-04T13:33:00.531Z,1.65
2022-09-04T13:35:43.928Z,1.52
2022-09-04T13:38:28.833Z,1.70
2022-09-04T13:41:35.683Z,2.60
2022-09-04T13:44:29.451Z,2.30
2022-09-04T13:47:03.709Z,1.88
2022-09-04T13:49:44.570Z,1.35
2022-09-04T13:52:19.328Z,1.80
2022-09-04T13:54:52.861Z,1.67
2022-09-04T13:57:25.891Z,1.75
2022-09-04T13:59:57.199Z,1.60
2022-09-04T14:02:28.758Z,1.52
2022-09-04T14:05:02.617Z,1.60
2022-09-04T14:07:36.665Z,1.50
2022-09-04T14:10:13.586Z,1.60
2022-09-04T14:13:05.384Z,1.35
2022-09-04T14:15:46.886Z,1.50
2022-09-04T14:18:45.454Z,1.67
2022-09-04T14:21:23.755Z,1.65
2022-09-04T14:24:03.288Z,1.60
2022-09-04T14:26:40.268Z,1.50
2022-09-04T14:29:22.403Z,1.88
2022-09-04T14:32:04.624Z,1.60
2022-09-04T14:34:44.542Z,1.35
2022-09-04T14:37:28.616Z,1.40
2022-09-04T14:40:03.596Z,1.35
2022-09-04T14:42:45.084Z,1.20
2022-09-04T14:46:00.695Z,1.58
2022-09-04T14:48:29.449Z,1.88
2022-09-04T14:51:15.450Z,1.40
2022-09-04T14:53:49.222Z,1.40
2022-09-04T14:56:28.374Z,1.50
2022-09-04T14:59:03.164Z,1.50
2022-09-04T15:01:36.793Z,1.30
2022-09-04T15:04:13.226Z,1.30
2022-09-04T15:07:07.791Z,1.25
2022-09-04T15:09:38.576Z,1.40
2022-09-04T15:12:24.597Z,1.50
2022-09-04T15:14:58.241Z,1.70
2022-09-04T15:17:30.198Z,1.90
2022-09-04T15:20:03.161Z,1.85
2022-09-04T15:22:37.665Z,1.73
2022-09-04T15:25:09.372Z,1.77
2022-09-04T15:27:47.049Z,2.05
2022-09-04T15:30:21.652Z,1.92
2022-09-04T15:32:51.034Z,1.38
2022-09-04T15:35:26.317Z,1.75
2022-09-04T15:38:07.826Z,1.75
2022-09-04T15:40:54.370Z,1.85
2022-09-04T15:43:38.898Z,1.80
2022-09-04T15:46:12.406Z,1.35
2022-09-04T15:48:53.167Z,1.83
2022-09-04T15:51:28.673Z,1.80
2022-09-04T15:54:21.315Z,1.85
2022-09-04T15:56:59.965Z,2.13
2022-09-04T15:59:40.648Z,1.92
2022-09-04T16:02:20.397Z,1.75
2022-09-04T16:05:00.058Z,2.17
2022-09-04T16:07:40.302Z,2.15
2022-09-04T16:10:16.683Z,1.90
2022-09-04T16:12:52.738Z,1.80
2022-09-04T16:15:30.785Z,2.03
2022-09-04T16:18:09.908Z,3.25
2022-09-04T16:20:46.993Z,2.30
2022-09-04T16:23:18.608Z,1.60
2022-09-04T16:25:50.338Z,2.50
2022-09-04T16:28:26.703Z,4.00
2022-09-04T16:30:59.247Z,6.00
2022-09-04T16:33:31.665Z,2.15
2022-09-04T16:36:04.502Z,2.20
2022-09-04T16:38:40.577Z,2.53
2022-09-04T16:41:14.984Z,2.70
2022-09-04T16:44:08.980Z,1.90
2022-09-04T16:46:43.669Z,2.00
2022-09-04T16:49:23.087Z,2.30
2022-09-04T16:52:01.296Z,2.10
2022-09-04T16:54:35.491Z,2.90
2022-09-04T16:57:14.792Z,2.20
2022-09-04T16:59:45.944Z,2.38
2022-09-04T17:02:29.438Z,2.15
2022-09-04T17:05:17.683Z,2.30
2022-09-04T17:07:51.628Z,1.95
2022-09-04T17:10:36.656Z,2.22
2022-09-04T17:13:12.250Z,2.47
2022-09-04T17:15:53.974Z,2.30
2022-09-04T17:18:26.113Z,2.30
2022-09-04T17:23:59.429Z,2.10
2022-09-04T17:28:56.808Z,2.60
2022-09-04T17:29:10.938Z,2.42
2022-09-04T17:29:47.397Z,2.25
2022-09-04T17:34:31.475Z,2.70
2022-09-04T17:40:44.351Z,2.50
2022-09-04T17:40:57.533Z,3.20
2022-09-04T17:41:40.012Z,2.75
2022-09-04T17:44:25.286Z,2.47
2022-09-04T17:47:04.633Z,2.55
2022-09-04T17:49:35.102Z,2.85
2022-09-04T17:52:09.101Z,3.00
2022-09-04T17:54:42.354Z,3.10
2022-09-04T17:57:26.561Z,3.42
2022-09-04T18:00:01.975Z,2.70
2022-09-04T18:02:42.263Z,2.78
2022-09-04T18:05:19.975Z,3.17
2022-09-04T18:08:10.051Z,3.10
2022-09-04T18:10:52.400Z,3.45
2022-09-04T18:13:37.461Z,2.50
2022-09-04T18:16:20.513Z,2.85
2022-09-04T18:18:52.929Z,2.53
2022-09-04T18:21:26.140Z,2.85
2022-09-04T18:24:02.198Z,3.17
2022-09-04T18:26:40.560Z,2.83
2022-09-04T18:34:31.035Z,2.88
2022-09-04T18:37:19.204Z,3.22
2022-09-04T18:37:24.549Z,3.15
2022-09-04T18:38:38.511Z,3.22
2022-09-04T18:45:08.609Z,2.85
2022-09-04T18:50:28.303Z,3.38
2022-09-04T18:50:37.752Z,3.45
2022-09-04T18:50:46.368Z,3.15
2022-09-04T18:53:05.882Z,3.53
2022-09-04T18:55:42.336Z,3.22
2022-09-04T18:58:36.861Z,3.80
2022-09-04T19:01:13.383Z,3.45
2022-09-04T19:03:46.966Z,2.95
2022-09-04T19:06:18.738Z,2.92
2022-09-04T19:08:50.770Z,3.20
2022-09-04T19:11:26.721Z,3.10
2022-09-04T19:14:10.167Z,3.45
2022-09-04T19:16:44.092Z,4.20
2022-09-04T19:19:20.834Z,3.60
2022-09-04T19:21:58.714Z,3.55
2022-09-04T19:24:35.720Z,3.97
2022-09-04T19:27:26.751Z,3.58
2022-09-04T19:30:18.464Z,3.80
2022-09-04T19:33:03.062Z,3.92
2022-09-04T19:35:38.386Z,4.18
2022-09-04T19:45:12.528Z,4.13
2022-09-04T19:46:05.459Z,3.72
2022-09-04T19:46:26.611Z,3.78
2022-09-04T19:47:05.244Z,4.32
2022-09-04T19:53:15.567Z,4.20
2022-09-04T19:53:34.224Z,4.20
2022-09-04T19:55:41.051Z,4.10
2022-09-04T19:58:11.785Z,4.78
2022-09-04T20:00:49.127Z,4.88
2022-09-04T20:03:28.966Z,4.30
2022-09-04T20:06:20.034Z,4.88
2022-09-04T20:08:53.407Z,4.30
2022-09-04T20:11:35.011Z,4.90
2022-09-04T20:14:13.835Z,4.70
2022-09-04T20:16:52.044Z,4.70
2022-09-04T20:19:28.871Z,4.97
2022-09-04T20:22:01.870Z,4.70
2022-09-04T20:24:39.633Z,4.93
2022-09-04T20:27:15.795Z,5.15
2022-09-04T20:29:55.008Z,4.18
2022-09-04T20:32:28.456Z,5.07
2022-09-04T20:35:14.060Z,4.97
2022-09-04T20:37:53.739Z,4.38
2022-09-04T20:40:31.846Z,4.15
2022-09-04T20:43:12.366Z,4.20
2022-09-04T20:48:51.096Z,3.80
2022-09-04T20:52:45.832Z,4.03
2022-09-04T20:52:55.062Z,4.25
2022-09-04T20:54:51.809Z,4.53
2022-09-04T21:03:12.415Z,3.80
2022-09-04T21:03:21.497Z,3.70
2022-09-04T21:03:30.679Z,3.85
2022-09-04T21:06:14.151Z,4.75
2022-09-04T21:08:51.399Z,3.92
2022-09-04T21:11:40.754Z,4.10
2022-09-04T21:14:16.666Z,3.70
2022-09-04T21:17:17.050Z,4.00
2022-09-04T21:20:20.722Z,4.63
2022-09-04T21:23:06.069Z,4.43
2022-09-04T21:25:45.157Z,4.75
2022-09-04T21:28:37.270Z,4.33
2022-09-04T21:31:13.953Z,4.30
2022-09-04T21:33:54.638Z,3.53
2022-09-04T21:36:32.072Z,4.70
2022-09-04T21:39:34.530Z,4.68
2022-09-04T21:42:26.035Z,4.03
2022-09-04T21:45:33.397Z,4.82
2022-09-04T21:48:37.866Z,4.47
2022-09-04T21:51:34.894Z,4.07
2022-09-04T21:55:08.516Z,3.95
2022-09-04T22:02:27.864Z,4.43
2022-09-04T22:02:45.495Z,4.32
2022-09-04T22:03:31.532Z,4.15
2022-09-04T22:06:10.386Z,4.20
2022-09-04T22:13:30.304Z,4.40
2022-09-04T22:14:48.551Z,4.47
2022-09-04T22:17:41.388Z,4.65
2022-09-04T22:20:22.446Z,4.65
2022-09-04T22:23:27.038Z,4.75
2022-09-04T22:26:24.268Z,4.55
2022-09-04T22:29:25.646Z,4.90
2022-09-04T22:32:34.221Z,4.30
2022-09-04T22:35:46.032Z,5.10
2022-09-04T22:38:43.488Z,4.72
2022-09-04T22:41:34.729Z,4.75
2022-09-04T22:44:13.591Z,4.68
2022-09-04T22:47:25.793Z,4.78
2022-09-04T22:50:16.440Z,5.03
2022-09-04T22:53:06.308Z,5.28
2022-09-04T22:56:08.406Z,4.80
2022-09-04T22:59:22.529Z,5.18
2022-09-04T23:02:13.949Z,5.18
2022-09-04T23:04:54.960Z,6.00
2022-09-04T23:13:01.325Z,5.25
2022-09-04T23:13:46.988Z,5.30
2022-09-04T23:14:22.228Z,4.72
2022-09-04T23:17:07.432Z,5.53
2022-09-04T23:26:37.083Z,4.60
2022-09-04T23:26:41.675Z,5.80
2022-09-04T23:26:49.398Z,5.45
2022-09-04T23:29:45.208Z,4.85
2022-09-04T23:32:28.464Z,4.75
2022-09-04T23:35:15.889Z,5.60
2022-09-04T23:38:11.616Z,5.40
2022-09-04T23:40:45.065Z,5.05
2022-09-04T23:43:35.315Z,5.43
2022-09-04T23:49:12.542Z,5.18
2022-09-04T23:51:47.965Z,5.18
2022-09-04T23:54:37.197Z,5.65
2022-09-04T23:57:25.891Z,5.40
